GMFM

Bassatine Airport

Meknes, Morocco
METAR GMFM 152000Z 32009KT 290V360 CAVOK 20/14 Q1022 NOSIG
Observed Flight Rules
Jul-15 @ 20:00 UTC (49 minutes ago) Visual Flight Rules
Wind Visibility Clouds
320° at 9 knots 10,000+ meters
  • Clear skies
Temperatures Readings
Current 20°C / 68°F
Dewpoint 14°C / 57°F
Humidity 69%
Altimeter 30.18" Hg
Pressure 1022 hPa
Elevation 549
METAR GMFM 152000Z 32009KT 290V360 CAVOK 20/14 Q1022 NOSIG
Observed Flight Rules
Jul-15 @ 20:00 UTC
(49 minutes ago)
VFR
Wind Visibility
320° at 9 knots 10,000+ meters
Clouds
  • Clear skies
Temperature Dewpoint
20°C / 68°F 14°C / 57°F
Humidity Altimeter Pressure
69% 30.18" Hg 1022 hPa